Port Charlotte, Florida
Current Conditions -  °F | °C
As of 5:53 AM on Sunday 21 Dec 2014 (Local Time) from KPGD Reporting Station
Clear Clear  
Wind Chill: 59°   Ceiling: Unl
Heat Index: 59°   Visibility: 10mi
Dew Point: 58°   Wind: 5mph
Humidity: 96%   Direction: 140°SE
Pressure: 30.07"   Gusts: NA
Location:  26.98°N, 82.1°W
Report Text: KPGD 211053Z AUTO 14004KT 10SM CLR 15/14 A3007 RMK AO2 SLP183 T01500144
Loading
Personal Weather Stations






























Interactive Weather Map New forecast layout! Learn more

10-Day Weather Forecast

Advertisements
Track Severe Weather on mobile